• Join FlightAware (Why Join?)
  • Login
  • US Flag 
10:44AM EST


 

Airport Tracker/Info


-or-


 

Live Flight TrackerFlight Track Log ✈ CTL22 ✈ 23-May-2013 ✈ KBKL - KGRR

Flight Track Log - Related Links

Times and Time Zones

All times are in EDT time to prevent confusion due to time zone crossing. See the CTL22 flight status page for this flight to view local times or setup timezone preferences in your user account.

Time Position Orientation Groundspeed Altitude Reporting Facility
EDT Latitude Longitude Course Direction KTS MPH feet Rate Location/Type
09:33PM 41.5497 -81.7289 333° Northwest 120 138 2,800  Level Cleveland Center
09:35PM 41.5828 -81.7656 320° Northwest 125 144 4,100 900 Climbing Cleveland Center
09:36PM 41.6033 -81.8022 307° West 128 147 5,000 840 Climbing Cleveland Center
09:36PM 41.6156 -81.8303 300° West 135 155 5,600 540 Climbing Cleveland Center
09:38PM 41.6419 -81.8836 304° West 144 166 6,000 240 Climbing Cleveland Center
09:38PM 41.6503 -81.8975 309° West 162 186 6,000  Level Cleveland Center
09:39PM 41.6725 -81.9508 299° West 167 192 6,000  Level Cleveland Center
09:40PM 41.6947 -81.9986 302° West 167 192 6,000  Level Cleveland Center
09:41PM 41.7172 -82.0492 301° West 167 192 6,000 -60 Level Cleveland Center
09:42PM 41.7414 -82.0969 304° West 162 186 5,900  Descending Cleveland Center
09:43PM 41.7617 -82.1503 297° West 162 186 6,000  Climbing Cleveland Center
09:44PM 41.7858 -82.2039 301° West 162 186 6,000  Level Cleveland Center
09:45PM 41.8061 -82.2544 298° West 162 186 6,000  Level Cleveland Center
09:46PM 41.8242 -82.2967 300° West 159 183 6,100  Climbing Cleveland Center
09:47PM 41.8525 -82.3561 303° West 162 186 6,000 -120 Descending Cleveland Center
09:48PM 41.8725 -82.4125 295° West 162 186 5,900  Descending Cleveland Center
09:49PM 41.8903 -82.4686 293° West 162 186 6,000 60 Climbing Cleveland Center
09:50PM 41.9081 -82.5250 293° West 162 186 6,100  Climbing Cleveland Center
09:51PM 41.9217 -82.5814 301° West 167 192 6,000 -60 Descending Cleveland Center
09:52PM 41.9372 -82.6403 290° West 164 189 6,000  Level Cleveland Center
09:53PM 41.9531 -82.6967 291° West 167 192 6,000  Level Cleveland Center
09:54PM 41.9747 -82.7617 294° West 163 188 6,000  Level Cleveland Center
09:55PM 41.9864 -82.8097 288° West 167 192 6,000  Level Cleveland Center
09:56PM 42.0081 -82.8719 295° West 160 184 6,000  Level Cleveland Center
09:57PM 42.0217 -82.9228 290° West 155 178 6,000  Level Cleveland Center
09:58PM 42.0392 -82.9736 295° West 159 183 6,000  Level Cleveland Center
09:59PM 42.0547 -83.0300 290° West 156 180 6,000  Level Cleveland Center
10:00PM 42.0764 -83.0897 296° West 156 180 6,000  Level Cleveland Center
10:01PM 42.0919 -83.1350 295° West 156 180 6,000  Level Cleveland Center
10:02PM 42.1136 -83.1947 296° West 160 184 6,000  Level Cleveland Center
10:03PM 42.1311 -83.2514 293° West 157 181 6,100  Climbing Cleveland Center
10:04PM 42.1489 -83.2997 296° West 157 181 6,000 -60 Descending Cleveland Center
10:05PM 42.1619 -83.3564 287° West 159 183 6,000  Level Cleveland Center
10:06PM 42.1814 -83.4189 293° West 159 183 6,000  Level Cleveland Center
10:07PM 42.2008 -83.4731 296° West 156 180 6,000  Level Cleveland Center
10:08PM 42.2203 -83.5300 295° West 160 184 6,000  Level Cleveland Center
10:09PM 42.2356 -83.5783 293° West 157 181 6,000  Level Cleveland Center
10:10PM 42.2528 -83.6353 292° West 158 182 6,000  Level Cleveland Center
10:11PM 42.2742 -83.6953 296° West 157 181 6,000  Level Cleveland Center
10:12PM 42.2936 -83.7469 297° West 157 181 6,000  Level Cleveland Center
10:13PM 42.3108 -83.8039 292° West 160 184 6,000  Level Cleveland Center
10:14PM 42.3261 -83.8553 292° West 160 184 6,000  Level Cleveland Center
10:15PM 42.3494 -83.9128 299° West 159 183 6,000  Level Cleveland Center
10:17PM 42.3709 -83.9732 296° West  Level FlightAware Approximate
10:24PM 42.4931 -84.3339 294° West  Level FlightAware Approximate
10:25PM 42.5099 -84.3859 294° West  Level FlightAware Approximate
10:26PM 42.5267 -84.4379 294° West  Level FlightAware Approximate
10:27PM 42.5435 -84.4899 294° West  Level FlightAware Approximate
10:28PM 42.5602 -84.5420 294° West  Level FlightAware Approximate
10:29PM 42.5769 -84.5941 294° West  Level FlightAware Approximate
10:30PM 42.5936 -84.6462 294° West  Level FlightAware Approximate
10:31PM 42.6103 -84.6983 293° West  Level FlightAware Approximate
10:31PM 42.6314 -84.7547 293° West 164 189 6,000  Level Chicago Center
10:32PM 42.6270 -84.7505 293° West  Level FlightAware Approximate
10:32PM 42.6533 -84.8242 293° West 166 191 6,000  Level Chicago Center
10:33PM 42.6436 -84.8027 293° West  Level FlightAware Approximate
10:33PM 42.6739 -84.8794 297° West 166 191 6,000  Level Chicago Center
10:34PM 42.6602 -84.8549 293° West  Level FlightAware Approximate
10:34PM 42.6928 -84.9372 294° West 167 192 6,000  Level Chicago Center
10:35PM 42.6768 -84.9072 293° West  Level FlightAware Approximate
10:35PM 42.7114 -84.9939 294° West 167 192 6,000  Level Chicago Center
10:36PM 42.6933 -84.9595 293° West  Level FlightAware Approximate
10:36PM 42.7297 -85.0511 294° West 166 191 6,000  Level Chicago Center
10:37PM 42.7503 -85.1067 297° West 165 190 6,000 -60 Level Chicago Center
10:38PM 42.7686 -85.1628 294° West 164 189 5,900 -540 Descending Chicago Center
10:39PM 42.7883 -85.2244 294° West 174 200 4,900 -1,140 Descending Chicago Center
10:40PM 42.8106 -85.3086 290° West 193 222 3,600 -1,080 Descending Chicago Center
10:41PM 42.8308 -85.3736 293° West 191 220 2,800 -840 Descending Chicago Center
10:42PM 42.8531 -85.4328 297° West 184 212 2,000 -780 Descending Chicago Center
10:43PM 42.8747 -85.4889 298° West 176 203 1,300 -540 Descending Chicago Center
10:44PM 42.8881 -85.5311 293° West 158 182 900 -420 Descending Chicago Center
10:46PM 42.8808 -85.5228 140° Southeast  Level Estimated